createdAt,value
2019-05-07T00:00:53.811Z,6.67
2019-05-07T00:03:23.272Z,5.37
2019-05-07T00:05:53.926Z,9.63
2019-05-07T00:08:24.574Z,8.63
2019-05-07T00:10:54.189Z,9.63
2019-05-07T00:13:23.501Z,9.10
2019-05-07T00:15:52.935Z,10.57
2019-05-07T00:18:22.946Z,9.27
2019-05-07T00:20:53.591Z,6.27
2019-05-07T00:23:24.006Z,13.43
2019-05-07T00:25:53.469Z,10.97
2019-05-07T00:28:23.105Z,10.13
2019-05-07T00:30:53.748Z,6.47
2019-05-07T00:33:23.832Z,9.33
2019-05-07T00:35:54.826Z,8.93
2019-05-07T00:38:25.772Z,9.70
2019-05-07T00:40:56.770Z,9.43
2019-05-07T00:43:27.948Z,9.17
2019-05-07T00:45:59.188Z,11.50
2019-05-07T00:48:28.544Z,7.80
2019-05-07T00:50:59.526Z,6.63
2019-05-07T00:53:28.974Z,8.07
2019-05-07T00:55:58.292Z,7.57
2019-05-07T00:58:27.629Z,9.13
2019-05-07T01:00:56.941Z,6.93
2019-05-07T01:03:26.255Z,7.20
2019-05-07T01:05:55.592Z,8.27
2019-05-07T01:08:24.902Z,8.37
2019-05-07T01:10:55.277Z,9.57
2019-05-07T01:13:24.868Z,7.83
2019-05-07T01:15:54.178Z,9.90
2019-05-07T01:18:23.578Z,8.50
2019-05-07T01:20:53.476Z,7.17
2019-05-07T01:23:23.197Z,6.43
2019-05-07T01:25:52.830Z,6.47
2019-05-07T01:28:22.571Z,10.17
2019-05-07T01:30:52.880Z,6.83
2019-05-07T01:33:26.823Z,10.23
2019-05-07T01:35:57.780Z,6.20
2019-05-07T01:38:27.099Z,6.77
2019-05-07T01:40:57.467Z,6.67
2019-05-07T01:43:26.773Z,5.83
2019-05-07T01:45:56.085Z,8.83
2019-05-07T01:48:25.459Z,9.17
2019-05-07T01:50:54.769Z,8.67
2019-05-07T01:53:24.093Z,9.57
2019-05-07T01:55:53.427Z,7.53
2019-05-07T01:58:22.732Z,10.73
2019-05-07T02:00:53.317Z,8.57
2019-05-07T02:03:42.299Z,8.20
2019-05-07T02:06:13.305Z,10.50
2019-05-07T02:08:47.034Z,7.53
2019-05-07T02:11:36.120Z,9.67
2019-05-07T02:14:05.810Z,8.50
2019-05-07T02:16:35.122Z,10.17
2019-05-07T02:19:05.542Z,9.03
2019-05-07T02:21:34.886Z,7.50
2019-05-07T02:24:05.266Z,12.27
2019-05-07T02:26:34.658Z,9.93
2019-05-07T02:29:04.048Z,12.13
2019-05-07T02:31:33.956Z,6.50
2019-05-07T02:34:03.420Z,12.37
2019-05-07T02:36:34.145Z,8.10
2019-05-07T02:39:12.852Z,10.23
2019-05-07T02:41:44.177Z,10.77
2019-05-07T02:44:14.042Z,9.40
2019-05-07T02:46:44.830Z,11.57
2019-05-07T02:49:23.435Z,13.70
2019-05-07T02:51:53.811Z,12.53
2019-05-07T02:54:27.329Z,14.13
2019-05-07T02:56:56.333Z,11.80
2019-05-07T02:59:25.358Z,13.53
2019-05-07T03:01:54.261Z,12.50
2019-05-07T03:04:24.954Z,16.27
2019-05-07T03:06:54.458Z,16.90
2019-05-07T03:09:23.686Z,15.50
2019-05-07T03:11:53.107Z,17.83
2019-05-07T03:14:23.422Z,18.83
2019-05-07T03:16:53.703Z,11.50
2019-05-07T03:19:24.148Z,13.37
2019-05-07T03:21:54.281Z,13.73
2019-05-07T03:24:43.424Z,15.40
2019-05-07T03:27:14.415Z,19.10
2019-05-07T03:29:45.155Z,18.20
2019-05-07T03:32:36.626Z,15.77
2019-05-07T03:35:07.035Z,19.30
2019-05-07T03:37:36.975Z,20.07
2019-05-07T03:40:07.772Z,20.67
2019-05-07T03:42:37.811Z,22.93
2019-05-07T03:45:23.131Z,25.67
2019-05-07T03:47:58.940Z,20.33
2019-05-07T03:50:27.895Z,24.97
2019-05-07T03:52:56.783Z,25.43
2019-05-07T03:55:25.684Z,21.53
2019-05-07T03:57:54.608Z,29.23
2019-05-07T04:00:24.028Z,28.17
2019-05-07T04:02:53.014Z,23.87
2019-05-07T04:05:23.262Z,25.97
2019-05-07T04:07:54.051Z,30.17
2019-05-07T04:10:23.505Z,29.80
2019-05-07T04:12:53.341Z,22.87
2019-05-07T04:15:23.392Z,20.43
2019-05-07T04:17:53.706Z,23.17
2019-05-07T04:20:23.997Z,25.87
2019-05-07T04:22:53.671Z,22.27
2019-05-07T04:25:36.756Z,21.03
2019-05-07T04:28:10.026Z,18.77
2019-05-07T04:30:39.202Z,19.17
2019-05-07T04:33:12.868Z,22.33
2019-05-07T04:35:47.773Z,23.33
2019-05-07T04:38:16.656Z,22.43
2019-05-07T04:40:45.574Z,26.00
2019-05-07T04:43:14.485Z,28.90
2019-05-07T04:45:43.712Z,34.67
2019-05-07T04:48:14.194Z,28.63
2019-05-07T04:50:47.892Z,30.60
2019-05-07T04:53:15.797Z,26.97
2019-05-07T04:55:44.693Z,27.90
2019-05-07T04:58:14.212Z,29.90
2019-05-07T05:00:43.487Z,24.80
2019-05-07T05:03:17.213Z,23.53
2019-05-07T05:05:46.191Z,33.03
2019-05-07T05:08:15.086Z,37.70
2019-05-07T05:10:45.083Z,25.53
2019-05-07T05:13:14.133Z,26.60
2019-05-07T05:15:43.284Z,25.27
2019-05-07T05:18:12.887Z,25.83
2019-05-07T05:20:55.902Z,23.20
2019-05-07T05:23:32.161Z,25.50
2019-05-07T05:26:01.955Z,18.60
2019-05-07T05:28:32.436Z,18.30
2019-05-07T05:31:03.443Z,21.00
2019-05-07T05:33:32.535Z,20.00
2019-05-07T05:36:03.036Z,25.00
2019-05-07T05:38:32.941Z,18.10
2019-05-07T05:41:02.742Z,18.77
2019-05-07T05:43:33.636Z,21.07
2019-05-07T05:46:04.283Z,18.83
2019-05-07T05:48:33.529Z,18.63
2019-05-07T05:51:13.288Z,22.40
2019-05-07T05:53:43.829Z,23.60
2019-05-07T05:56:32.767Z,21.50
2019-05-07T07:17:06.067Z,22.20
2019-05-07T07:19:36.210Z,22.73
2019-05-07T07:22:05.364Z,22.13
2019-05-07T07:24:34.319Z,20.70
2019-05-07T07:27:04.409Z,26.33
2019-05-07T07:29:38.623Z,24.13
2019-05-07T07:32:09.643Z,18.97
2019-05-07T07:34:43.614Z,14.17
2019-05-07T10:35:43.298Z,7.70
2019-05-07T10:38:12.511Z,9.83
2019-05-07T10:40:41.548Z,9.53
2019-05-07T10:43:10.609Z,8.43
2019-05-07T10:45:42.136Z,8.53
2019-05-07T10:48:22.111Z,8.23
2019-05-07T10:51:02.161Z,10.33
2019-05-07T10:53:32.388Z,5.77
2019-05-07T10:56:02.661Z,7.80
2019-05-07T10:58:32.182Z,9.90
2019-05-07T11:01:02.867Z,6.03
2019-05-07T11:03:32.416Z,7.13
2019-05-07T11:22:48.500Z,12.43
2019-05-07T11:25:17.466Z,6.90
2019-05-07T11:27:46.358Z,8.97
2019-05-07T11:30:15.634Z,7.53
2019-05-07T11:32:44.529Z,12.27
2019-05-07T11:35:14.721Z,6.20
2019-05-07T11:37:44.370Z,9.50
2019-05-07T11:40:14.139Z,8.03
2019-05-07T11:43:02.988Z,8.23
2019-05-07T11:45:37.940Z,8.03
2019-05-07T11:48:06.923Z,7.13
2019-05-07T11:50:37.504Z,7.00
2019-05-07T11:53:09.118Z,7.63
2019-05-07T11:55:38.008Z,7.77
2019-05-07T11:58:06.940Z,7.73
2019-05-07T12:00:52.545Z,7.27
2019-05-07T12:03:22.141Z,21.93
2019-05-07T12:05:52.693Z,6.60
2019-05-07T12:08:22.428Z,6.27
2019-05-07T12:10:52.386Z,7.00
2019-05-07T12:13:21.790Z,7.80
2019-05-07T12:15:52.090Z,8.53
2019-05-07T12:18:22.822Z,7.50
2019-05-07T12:20:53.870Z,6.87
2019-05-07T12:23:22.715Z,9.30
2019-05-07T12:25:52.890Z,6.90
2019-05-07T12:28:22.521Z,10.27
2019-05-07T12:30:56.211Z,7.57
2019-05-07T12:33:43.098Z,7.00
2019-05-07T12:36:13.665Z,11.23
2019-05-07T12:38:42.553Z,9.43
2019-05-07T12:41:29.603Z,6.63
2019-05-07T12:43:59.404Z,7.07
2019-05-07T12:46:28.363Z,8.10
2019-05-07T12:48:57.309Z,7.67
2019-05-07T12:51:36.314Z,7.20
2019-05-07T12:54:14.924Z,7.43
2019-05-07T12:56:43.809Z,6.97
2019-05-07T12:59:12.970Z,7.53
2019-05-07T13:01:49.646Z,8.53
2019-05-07T13:04:29.165Z,8.73
2019-05-07T13:06:59.882Z,7.50
2019-05-07T13:09:28.864Z,9.00
2019-05-07T13:11:57.800Z,7.00
2019-05-07T13:14:27.021Z,6.80
2019-05-07T13:16:55.909Z,4.87
2019-05-07T13:19:24.798Z,7.77
2019-05-07T13:21:53.719Z,7.07
2019-05-07T13:24:22.932Z,7.30
2019-05-07T13:26:51.987Z,8.77
2019-05-07T13:29:22.169Z,6.17
2019-05-07T13:31:54.496Z,6.37
2019-05-07T13:34:23.403Z,9.20
2019-05-07T13:36:55.001Z,4.80
2019-05-07T13:39:25.615Z,6.33
2019-05-07T13:41:56.213Z,7.90
2019-05-07T13:44:32.592Z,9.77
2019-05-07T13:47:08.860Z,7.07
2019-05-07T13:49:37.836Z,6.97
2019-05-07T13:52:06.796Z,8.23
2019-05-07T13:54:35.855Z,5.90
2019-05-07T13:57:04.874Z,6.93
2019-05-07T13:59:34.226Z,6.63
2019-05-07T14:02:05.084Z,12.60
2019-05-07T14:04:35.140Z,9.53
2019-05-07T14:07:04.170Z,7.03
2019-05-07T14:09:33.132Z,4.77
2019-05-07T14:12:02.150Z,8.63
2019-05-07T14:14:34.208Z,6.47
2019-05-07T14:17:02.327Z,7.03
2019-05-07T14:19:32.751Z,5.90
2019-05-07T14:22:14.734Z,9.50
2019-05-07T14:24:32.925Z,5.37
2019-05-07T14:27:02.098Z,6.87
2019-05-07T14:29:32.049Z,6.43
2019-05-07T14:32:02.913Z,4.63
2019-05-07T14:34:35.054Z,6.03
2019-05-07T14:37:12.968Z,8.77
2019-05-07T14:39:42.540Z,4.87
2019-05-07T14:42:13.215Z,6.50
2019-05-07T14:44:49.212Z,7.50
2019-05-07T14:47:18.884Z,6.70
2019-05-07T14:49:48.343Z,5.37
2019-05-07T14:52:29.177Z,5.23
2019-05-07T14:54:48.065Z,5.97
2019-05-07T14:57:16.944Z,6.87
2019-05-07T14:59:45.930Z,5.73
2019-05-07T15:02:14.893Z,6.87
2019-05-07T15:04:43.850Z,6.27
2019-05-07T15:07:12.769Z,5.00
2019-05-07T15:09:42.449Z,6.90
2019-05-07T15:12:14.558Z,7.87
2019-05-07T15:14:42.268Z,5.07
2019-05-07T15:17:18.638Z,7.93
2019-05-07T15:19:47.616Z,5.40
2019-05-07T15:22:24.274Z,5.37
2019-05-07T15:24:53.284Z,5.63
2019-05-07T15:27:22.932Z,5.10
2019-05-07T15:29:52.638Z,6.07
2019-05-07T15:32:21.927Z,7.03
2019-05-07T15:34:52.711Z,9.07
2019-05-07T15:37:21.740Z,8.13
2019-05-07T15:39:52.578Z,5.97
2019-05-07T15:42:22.135Z,5.43
2019-05-07T15:44:52.838Z,10.83
2019-05-07T15:47:23.498Z,10.80
2019-05-07T15:49:52.393Z,11.63
2019-05-07T15:52:39.643Z,6.00
2019-05-07T15:55:08.896Z,4.87
2019-05-07T15:57:38.664Z,6.27
2019-05-07T16:00:09.481Z,6.80
2019-05-07T16:02:45.280Z,6.00
2019-05-07T16:05:13.655Z,6.77
2019-05-07T16:07:43.683Z,5.53
2019-05-07T16:10:15.139Z,6.90
2019-05-07T16:12:43.270Z,10.13
2019-05-07T16:15:13.900Z,6.27
2019-05-07T16:17:45.701Z,5.80
2019-05-07T16:20:14.653Z,6.87
2019-05-07T16:22:45.192Z,6.63
2019-05-07T16:25:14.211Z,7.13
2019-05-07T16:27:43.091Z,6.27
2019-05-07T16:30:14.293Z,4.67
2019-05-07T16:32:43.344Z,6.47
2019-05-07T16:35:16.042Z,6.43
2019-05-07T16:37:43.965Z,5.07
2019-05-07T16:40:13.196Z,7.47
2019-05-07T16:42:42.894Z,6.40
2019-05-07T16:45:13.256Z,4.77
2019-05-07T16:47:42.409Z,4.30
2019-05-07T16:50:13.146Z,6.40
2019-05-07T16:52:42.200Z,5.10
2019-05-07T16:55:12.257Z,6.50
2019-05-07T16:57:43.289Z,4.57
2019-05-07T17:00:14.460Z,4.07
2019-05-07T17:02:47.901Z,4.90
2019-05-07T17:05:16.924Z,4.90
2019-05-07T17:07:53.517Z,5.93
2019-05-07T17:10:22.531Z,4.30
2019-05-07T17:12:52.457Z,4.33
2019-05-07T17:15:23.006Z,5.63
2019-05-07T17:18:02.748Z,5.97
2019-05-07T17:20:32.797Z,3.60
2019-05-07T17:23:02.956Z,5.20
2019-05-07T17:25:38.202Z,5.40
2019-05-07T17:28:07.711Z,5.73
2019-05-07T17:30:37.754Z,4.43
2019-05-07T17:33:06.837Z,7.87
2019-05-07T17:35:36.865Z,3.93
2019-05-07T17:38:09.398Z,5.50
2019-05-07T17:40:36.473Z,4.80
2019-05-07T17:43:05.470Z,7.53
2019-05-07T17:45:34.446Z,3.77
2019-05-07T17:48:03.412Z,2.73
2019-05-07T17:50:40.048Z,3.60
2019-05-07T17:53:09.006Z,4.77
2019-05-07T17:55:37.893Z,2.87
2019-05-07T17:58:06.823Z,4.73
2019-05-07T18:00:36.052Z,5.80
2019-05-07T18:03:06.718Z,3.67
2019-05-07T18:05:35.856Z,3.17
2019-05-07T18:08:04.815Z,3.53
2019-05-07T18:10:33.846Z,5.20
2019-05-07T18:13:03.015Z,5.70
2019-05-07T18:15:32.300Z,4.10
2019-05-07T18:18:12.759Z,3.70
2019-05-07T18:20:42.272Z,6.37
2019-05-07T18:23:16.680Z,6.47
2019-05-07T18:25:42.871Z,3.20
2019-05-07T18:28:12.430Z,3.17
2019-05-07T18:30:41.625Z,6.57
2019-05-07T18:33:15.220Z,3.67
2019-05-07T18:35:45.744Z,3.60
2019-05-07T18:38:14.639Z,5.60
2019-05-07T18:40:43.641Z,3.53
2019-05-07T18:43:12.510Z,3.73
2019-05-07T18:45:41.450Z,3.43
2019-05-07T18:48:11.967Z,6.70
2019-05-07T18:50:41.989Z,3.57
2019-05-07T18:53:12.155Z,4.37
2019-05-07T18:55:42.370Z,5.00
2019-05-07T18:58:13.382Z,4.07
2019-05-07T19:00:43.665Z,7.00
2019-05-07T19:03:12.623Z,5.43
2019-05-07T19:05:42.460Z,3.93
2019-05-07T19:08:12.613Z,4.73
2019-05-07T19:10:42.868Z,3.67
2019-05-07T19:13:12.027Z,4.80
2019-05-07T19:15:42.024Z,3.93
2019-05-07T19:18:12.065Z,7.40
2019-05-07T19:20:42.214Z,4.13
2019-05-07T19:23:11.308Z,3.00
2019-05-07T19:25:42.063Z,4.53
2019-05-07T19:28:14.756Z,3.73
2019-05-07T19:30:42.066Z,4.37
2019-05-07T19:33:12.343Z,5.30
2019-05-07T19:35:41.935Z,3.43
2019-05-07T19:38:12.263Z,5.10
2019-05-07T19:40:42.008Z,7.07
2019-05-07T19:43:11.171Z,4.73
2019-05-07T19:45:41.865Z,7.40
2019-05-07T19:48:12.434Z,4.33
2019-05-07T19:50:42.061Z,4.47
2019-05-07T19:53:12.519Z,4.57
2019-05-07T19:56:01.893Z,7.80
2019-05-07T19:58:32.521Z,3.70
2019-05-07T20:01:01.826Z,6.77
2019-05-07T20:03:31.129Z,8.47
2019-05-07T20:06:02.252Z,4.60
2019-05-07T20:08:32.270Z,8.50
2019-05-07T20:11:15.032Z,4.13
2019-05-07T20:13:43.963Z,4.10
2019-05-07T20:16:17.671Z,12.77
2019-05-07T20:18:46.690Z,7.27
2019-05-07T20:21:15.777Z,10.07
2019-05-07T20:23:44.754Z,5.40
2019-05-07T20:26:13.647Z,3.97
2019-05-07T20:28:42.659Z,5.00
2019-05-07T20:31:12.402Z,5.43
2019-05-07T20:33:42.288Z,6.40
2019-05-07T20:36:11.812Z,8.70
2019-05-07T20:38:42.772Z,3.93
2019-05-07T20:41:12.901Z,9.43
2019-05-07T20:43:43.725Z,6.90
2019-05-07T20:46:12.625Z,4.63
2019-05-07T20:48:42.309Z,6.37
2019-05-07T20:51:12.447Z,4.60
2019-05-07T20:53:53.419Z,6.00
2019-05-07T20:56:23.970Z,6.07
2019-05-07T20:58:52.928Z,6.83
2019-05-07T21:01:22.148Z,4.83
2019-05-07T21:03:52.738Z,6.43
2019-05-07T21:06:22.485Z,8.87
2019-05-07T21:08:51.793Z,4.53
2019-05-07T21:11:22.737Z,3.97
2019-05-07T21:13:52.265Z,4.37
2019-05-07T21:16:22.598Z,5.33
2019-05-07T21:18:52.957Z,6.27
2019-05-07T21:21:22.022Z,5.87
2019-05-07T21:23:52.708Z,4.73
2019-05-07T21:26:22.511Z,6.93
2019-05-07T21:28:52.858Z,4.17
2019-05-07T21:31:22.745Z,11.23
2019-05-07T21:33:52.479Z,5.73
2019-05-07T21:36:22.770Z,7.20
2019-05-07T21:38:52.072Z,8.73
2019-05-07T21:41:22.650Z,5.67
2019-05-07T21:43:52.788Z,8.80
2019-05-07T21:46:22.350Z,8.07
2019-05-07T21:48:51.807Z,10.87
2019-05-07T21:51:22.838Z,6.13
2019-05-07T21:53:53.754Z,7.83
2019-05-07T21:56:30.177Z,5.40
2019-05-07T21:59:06.798Z,5.77
2019-05-07T22:01:43.410Z,6.43
2019-05-07T22:04:12.656Z,7.93
2019-05-07T22:06:42.825Z,10.60
2019-05-07T22:09:14.232Z,7.93
2019-05-07T22:11:43.626Z,5.63
2019-05-07T22:14:13.037Z,6.20
2019-05-07T22:16:43.039Z,5.07
2019-05-07T22:19:12.307Z,8.33
2019-05-07T22:21:43.162Z,6.73
2019-05-07T22:24:13.020Z,5.47
2019-05-07T22:26:42.579Z,4.97
2019-05-07T22:29:12.523Z,5.40
2019-05-07T22:31:55.294Z,4.73
2019-05-07T22:34:34.651Z,4.17
2019-05-07T22:37:05.182Z,5.53
2019-05-07T22:39:38.571Z,6.77
2019-05-07T22:42:09.121Z,9.37
2019-05-07T22:44:38.268Z,5.40
2019-05-07T22:47:19.097Z,7.10
2019-05-07T22:49:48.556Z,5.73
2019-05-07T22:52:17.504Z,9.47
2019-05-07T22:54:46.432Z,7.50
2019-05-07T22:57:22.896Z,5.33
2019-05-07T22:59:51.948Z,5.07
2019-05-07T23:02:22.781Z,5.43
2019-05-07T23:04:52.080Z,8.13
2019-05-07T23:07:22.269Z,6.30
2019-05-07T23:09:52.233Z,5.67
2019-05-07T23:12:21.963Z,6.33
2019-05-07T23:14:51.419Z,5.47
2019-05-07T23:17:22.297Z,7.27
2019-05-07T23:19:52.943Z,5.57
2019-05-07T23:22:22.667Z,7.20
2019-05-07T23:24:52.068Z,6.50
2019-05-07T23:27:22.457Z,12.60
2019-05-07T23:29:52.893Z,5.43
2019-05-07T23:32:22.251Z,8.43
2019-05-07T23:34:52.770Z,5.63
2019-05-07T23:37:22.511Z,7.23
2019-05-07T23:39:53.324Z,12.00
2019-05-07T23:42:23.858Z,7.27
2019-05-07T23:44:52.743Z,6.23
2019-05-07T23:47:22.720Z,8.30
2019-05-07T23:49:52.889Z,9.80
2019-05-07T23:52:22.501Z,8.13
2019-05-07T23:54:52.138Z,6.53
2019-05-07T23:57:23.152Z,9.80
2019-05-07T23:59:52.975Z,7.87
